createdAt,value
2023-01-17T00:00:09.819Z,2.20
2023-01-17T00:02:39.786Z,4.60
2023-01-17T00:05:25.604Z,2.47
2023-01-17T00:08:08.970Z,2.70
2023-01-17T00:10:44.054Z,1.07
2023-01-17T00:13:16.776Z,2.20
2023-01-17T00:15:46.578Z,2.77
2023-01-17T00:18:17.206Z,3.00
2023-01-17T00:21:05.015Z,3.53
2023-01-17T00:23:56.735Z,3.60
2023-01-17T00:26:26.728Z,2.47
2023-01-17T00:28:53.733Z,2.27
2023-01-17T00:31:20.828Z,5.00
2023-01-17T00:33:47.777Z,3.07
2023-01-17T00:36:17.346Z,5.43
2023-01-17T00:38:44.289Z,2.03
2023-01-17T00:41:12.530Z,3.37
2023-01-17T00:43:54.998Z,2.57
2023-01-17T00:46:37.592Z,4.87
2023-01-17T00:49:20.927Z,1.60
2023-01-17T00:52:05.719Z,2.00
2023-01-17T00:54:47.886Z,2.30
2023-01-17T00:57:30.278Z,2.00
2023-01-17T01:00:12.545Z,1.17
2023-01-17T01:02:55.331Z,2.53
2023-01-17T01:05:38.329Z,1.43
2023-01-17T01:08:35.024Z,0.93
2023-01-17T01:11:21.659Z,1.53
2023-01-17T01:14:03.751Z,2.73
2023-01-17T01:16:45.991Z,0.87
2023-01-17T01:19:28.579Z,3.70
2023-01-17T01:22:10.761Z,1.77
2023-01-17T01:24:55.556Z,2.23
2023-01-17T01:27:37.931Z,2.93
2023-01-17T01:30:21.333Z,7.80
2023-01-17T01:33:03.480Z,2.37
2023-01-17T01:35:33.250Z,11.27
2023-01-17T01:38:05.095Z,8.33
2023-01-17T01:40:37.456Z,3.33
2023-01-17T01:43:08.678Z,3.83
2023-01-17T01:45:38.857Z,3.97
2023-01-17T01:48:22.204Z,2.57
2023-01-17T01:50:53.610Z,2.77
2023-01-17T01:53:24.712Z,1.83
2023-01-17T01:55:58.435Z,2.70
2023-01-17T01:58:34.779Z,4.00
2023-01-17T02:01:04.816Z,2.17
2023-01-17T02:03:36.463Z,6.23
2023-01-17T02:06:17.781Z,4.57
2023-01-17T02:08:48.019Z,3.17
2023-01-17T02:11:22.785Z,4.17
2023-01-17T02:13:52.676Z,1.93
2023-01-17T02:16:35.575Z,0.83
2023-01-17T02:19:31.027Z,0.30
2023-01-17T02:22:19.386Z,0.20
2023-01-17T02:25:17.694Z,0.50
2023-01-17T02:28:09.556Z,1.03
2023-01-17T02:30:44.499Z,4.30
2023-01-17T02:33:25.840Z,1.00
2023-01-17T02:36:07.237Z,0.70
2023-01-17T02:38:46.330Z,1.83
2023-01-17T02:41:21.241Z,1.50
2023-01-17T02:43:53.495Z,2.87
2023-01-17T02:46:25.975Z,0.63
2023-01-17T02:48:57.816Z,2.60
2023-01-17T02:51:41.315Z,1.23
2023-01-17T02:54:30.210Z,3.40
2023-01-17T02:57:13.737Z,1.77
2023-01-17T02:59:52.439Z,1.93
2023-01-17T03:02:30.930Z,1.57
2023-01-17T03:05:07.133Z,3.40
2023-01-17T03:07:38.061Z,7.57
2023-01-17T03:10:11.262Z,2.80
2023-01-17T03:12:42.732Z,2.33
2023-01-17T03:15:13.929Z,1.63
2023-01-17T03:17:52.375Z,1.13
2023-01-17T03:20:23.910Z,1.43
2023-01-17T03:22:53.719Z,1.30
2023-01-17T03:25:23.732Z,3.50
2023-01-17T03:27:53.756Z,2.27
2023-01-17T03:30:23.741Z,4.20
2023-01-17T03:32:56.169Z,1.83
2023-01-17T03:35:25.957Z,3.37
2023-01-17T03:37:55.694Z,3.27
2023-01-17T03:40:25.756Z,2.63
2023-01-17T03:42:55.723Z,2.23
2023-01-17T03:45:25.429Z,1.60
2023-01-17T03:47:58.007Z,2.20
2023-01-17T03:50:27.990Z,0.90
2023-01-17T03:52:57.892Z,1.63
2023-01-17T03:55:27.726Z,3.50
2023-01-17T03:57:57.422Z,3.10
2023-01-17T04:00:27.436Z,2.63
2023-01-17T04:02:59.976Z,1.50
2023-01-17T04:05:29.708Z,0.93
2023-01-17T04:07:59.394Z,3.90
2023-01-17T04:10:29.224Z,1.57
2023-01-17T04:12:59.078Z,3.53
2023-01-17T04:15:28.953Z,2.63
2023-01-17T04:18:01.649Z,2.20
2023-01-17T04:20:35.121Z,2.17
2023-01-17T04:23:05.292Z,2.17
2023-01-17T04:25:35.529Z,3.50
2023-01-17T04:28:06.417Z,3.90
2023-01-17T04:30:36.341Z,4.00
2023-01-17T04:33:08.885Z,4.93
2023-01-17T04:35:38.936Z,1.97
2023-01-17T04:38:08.596Z,1.80
2023-01-17T04:40:38.365Z,6.90
2023-01-17T04:43:09.349Z,2.87
2023-01-17T04:45:39.292Z,2.60
2023-01-17T04:48:13.061Z,2.40
2023-01-17T04:50:43.072Z,3.20
2023-01-17T04:53:12.760Z,3.07
2023-01-17T04:55:42.584Z,3.73
2023-01-17T04:58:15.225Z,1.63
2023-01-17T05:00:44.904Z,2.80
2023-01-17T05:03:17.257Z,1.77
2023-01-17T05:05:47.458Z,1.53
2023-01-17T05:08:17.697Z,2.57
2023-01-17T05:10:49.304Z,4.60
2023-01-17T05:13:19.186Z,2.03
2023-01-17T05:15:49.798Z,4.80
2023-01-17T05:18:22.236Z,2.03
2023-01-17T05:20:51.944Z,2.03
2023-01-17T05:23:21.889Z,2.40
2023-01-17T05:25:52.089Z,4.07
2023-01-17T05:28:21.851Z,6.00
2023-01-17T05:30:51.731Z,4.20
2023-01-17T05:33:25.254Z,4.10
2023-01-17T05:35:55.046Z,6.17
2023-01-17T05:38:32.775Z,4.87
2023-01-17T05:41:02.934Z,5.00
2023-01-17T05:43:32.717Z,6.33
2023-01-17T05:46:02.514Z,6.97
2023-01-17T05:48:34.995Z,8.23
2023-01-17T05:51:04.897Z,7.07
2023-01-17T05:53:34.570Z,7.43
2023-01-17T05:56:05.483Z,4.50
2023-01-17T05:58:35.174Z,5.87
2023-01-17T06:01:05.037Z,3.37
2023-01-17T06:03:37.812Z,6.87
2023-01-17T06:06:07.827Z,8.20
2023-01-17T06:08:37.600Z,10.07
2023-01-17T06:11:07.909Z,5.07
2023-01-17T06:13:37.623Z,5.57
2023-01-17T06:16:08.769Z,5.07
2023-01-17T06:18:42.515Z,11.53
2023-01-17T06:21:12.287Z,8.97
2023-01-17T06:23:42.044Z,9.77
2023-01-17T06:26:15.155Z,8.83
2023-01-17T06:28:47.236Z,9.40
2023-01-17T06:31:18.397Z,7.87
2023-01-17T06:33:50.821Z,17.53
2023-01-17T06:36:20.586Z,12.40
2023-01-17T06:38:53.241Z,11.13
2023-01-17T06:41:23.389Z,9.87
2023-01-17T06:43:55.581Z,9.97
2023-01-17T06:46:26.011Z,9.83
2023-01-17T06:49:00.820Z,10.20
2023-01-17T06:51:30.735Z,13.13
2023-01-17T06:54:00.730Z,8.87
2023-01-17T06:56:36.066Z,9.47
2023-01-17T06:59:06.214Z,10.63
2023-01-17T07:01:36.162Z,10.67
2023-01-17T07:04:09.925Z,11.77
2023-01-17T07:06:39.984Z,11.67
2023-01-17T07:09:09.709Z,14.07
2023-01-17T07:11:39.504Z,13.10
2023-01-17T07:14:14.000Z,14.13
2023-01-17T07:16:46.135Z,20.87
2023-01-17T07:19:19.704Z,13.23
2023-01-17T07:21:49.461Z,15.63
2023-01-17T07:24:19.180Z,19.83
2023-01-17T07:26:51.450Z,27.20
2023-01-17T07:29:21.757Z,14.33
2023-01-17T07:31:52.028Z,17.60
2023-01-17T07:34:24.435Z,18.43
2023-01-17T07:36:54.846Z,23.50
2023-01-17T07:39:24.696Z,18.93
2023-01-17T07:41:54.476Z,21.27
2023-01-17T07:44:24.640Z,25.83
2023-01-17T07:46:54.607Z,20.27
2023-01-17T07:49:27.110Z,18.53
2023-01-17T07:51:57.151Z,20.97
2023-01-17T07:54:27.180Z,19.33
2023-01-17T07:56:56.945Z,20.83
2023-01-17T07:59:26.805Z,21.20
2023-01-17T08:01:56.705Z,19.47
2023-01-17T08:04:34.882Z,20.20
2023-01-17T08:07:05.112Z,21.37
2023-01-17T08:09:34.835Z,19.10
2023-01-17T08:12:04.799Z,18.17
2023-01-17T08:14:34.561Z,19.50
2023-01-17T08:17:07.904Z,19.87
2023-01-17T08:19:40.643Z,23.90
2023-01-17T08:22:12.258Z,21.20
2023-01-17T08:24:42.359Z,24.67
2023-01-17T08:27:12.486Z,22.43
2023-01-17T08:29:47.232Z,20.30
2023-01-17T08:32:17.099Z,18.77
2023-01-17T08:34:49.575Z,20.27
2023-01-17T08:37:19.459Z,21.57
2023-01-17T08:39:49.157Z,20.00
2023-01-17T08:42:19.349Z,22.93
2023-01-17T08:44:49.066Z,22.20
2023-01-17T08:47:18.996Z,24.30
2023-01-17T08:49:52.964Z,20.27
2023-01-17T08:52:22.791Z,20.73
2023-01-17T08:54:53.683Z,20.37
2023-01-17T08:57:23.512Z,24.67
2023-01-17T08:59:53.299Z,17.80
2023-01-17T09:02:24.958Z,17.10
2023-01-17T09:04:57.345Z,18.13
2023-01-17T09:07:27.331Z,21.30
2023-01-17T09:09:57.199Z,26.47
2023-01-17T09:12:27.041Z,17.77
2023-01-17T09:14:57.090Z,25.27
2023-01-17T09:17:26.989Z,23.27
2023-01-17T09:19:59.620Z,20.70
2023-01-17T09:22:29.343Z,16.63
2023-01-17T09:24:59.104Z,19.50
2023-01-17T09:27:28.974Z,18.17
2023-01-17T09:29:58.680Z,23.07
2023-01-17T09:32:28.465Z,15.47
2023-01-17T09:35:01.048Z,23.30
2023-01-17T09:37:31.075Z,17.67
2023-01-17T09:40:00.913Z,23.10
2023-01-17T09:42:37.456Z,20.60
2023-01-17T09:45:12.887Z,28.53
2023-01-17T09:47:48.109Z,24.47
2023-01-17T09:50:28.439Z,20.67
2023-01-17T09:53:02.448Z,128.90
2023-01-17T09:55:38.390Z,67.60
2023-01-17T09:58:14.924Z,30.57
2023-01-17T10:00:54.128Z,20.40
2023-01-17T10:03:41.151Z,28.83
2023-01-17T10:06:21.695Z,29.60
2023-01-17T10:09:15.595Z,25.87
2023-01-17T10:11:56.739Z,27.13
2023-01-17T10:14:55.210Z,24.97
2023-01-17T10:17:37.155Z,22.20
2023-01-17T10:20:25.291Z,27.00
2023-01-17T10:23:13.601Z,21.00
2023-01-17T10:25:51.421Z,20.50
2023-01-17T10:28:26.800Z,19.97
2023-01-17T10:31:02.444Z,23.53
2023-01-17T10:33:39.965Z,23.63
2023-01-17T10:36:16.046Z,18.13
2023-01-17T10:38:52.383Z,17.00
2023-01-17T10:41:28.768Z,17.97
2023-01-17T10:44:09.325Z,20.27
2023-01-17T10:46:43.558Z,17.20
2023-01-17T10:49:18.546Z,22.23
2023-01-17T10:52:09.851Z,20.37
2023-01-17T10:54:56.640Z,17.23
2023-01-17T10:57:27.848Z,14.70
2023-01-17T11:00:02.786Z,14.57
2023-01-17T11:02:40.023Z,23.07
2023-01-17T11:05:23.179Z,21.30
2023-01-17T11:08:03.909Z,19.30
2023-01-17T11:10:43.263Z,21.63
2023-01-17T11:13:29.244Z,16.57
2023-01-17T11:16:02.404Z,17.47
2023-01-17T11:18:34.510Z,19.50
2023-01-17T11:21:14.390Z,15.00
2023-01-17T11:23:45.567Z,13.77
2023-01-17T11:26:27.829Z,15.93
2023-01-17T11:29:17.351Z,14.30
2023-01-17T11:31:47.079Z,14.17
2023-01-17T11:34:19.774Z,14.70
2023-01-17T11:36:50.322Z,15.73
2023-01-17T11:39:29.145Z,11.73
2023-01-17T11:42:01.674Z,13.83
2023-01-17T11:44:33.836Z,14.93
2023-01-17T11:47:19.711Z,21.80
2023-01-17T11:49:51.830Z,16.07
2023-01-17T11:52:27.399Z,15.43
2023-01-17T11:54:58.664Z,16.30
2023-01-17T11:57:34.312Z,12.20
2023-01-17T12:00:19.668Z,13.57
2023-01-17T12:03:10.973Z,10.50
2023-01-17T12:05:53.735Z,14.40
2023-01-17T12:08:39.652Z,13.67
2023-01-17T12:11:16.835Z,17.23
2023-01-17T12:14:03.850Z,18.87
2023-01-17T12:16:47.964Z,15.33
2023-01-17T12:19:46.508Z,15.43
2023-01-17T12:22:33.933Z,16.87
2023-01-17T12:25:26.774Z,20.57
2023-01-17T12:28:11.625Z,21.50
2023-01-17T12:30:55.128Z,19.33
2023-01-17T12:33:31.203Z,15.23
2023-01-17T12:36:05.412Z,14.63
2023-01-17T12:38:38.678Z,15.77
2023-01-17T12:41:14.051Z,14.40
2023-01-17T12:43:44.718Z,17.37
2023-01-17T12:46:24.082Z,16.20
2023-01-17T12:48:57.835Z,16.17
2023-01-17T12:51:32.182Z,18.33
2023-01-17T12:54:10.219Z,15.23
2023-01-17T12:56:45.539Z,18.50
2023-01-17T12:59:22.152Z,19.07
2023-01-17T13:02:00.285Z,15.40
2023-01-17T13:04:41.993Z,10.53
2023-01-17T13:07:27.199Z,20.07
2023-01-17T13:10:04.778Z,22.57
2023-01-17T13:12:41.529Z,45.30
2023-01-17T13:15:18.632Z,30.60
2023-01-17T13:17:54.459Z,18.13
2023-01-17T13:20:32.241Z,19.27
2023-01-17T13:23:10.894Z,17.83
2023-01-17T13:25:49.754Z,19.80
2023-01-17T13:28:29.823Z,23.00
2023-01-17T13:31:24.942Z,20.43
2023-01-17T13:37:40.544Z,20.97
2023-01-17T13:40:32.044Z,14.47
2023-01-17T13:43:04.189Z,19.87
2023-01-17T13:45:38.270Z,13.33
2023-01-17T13:48:27.676Z,17.70
2023-01-17T13:51:04.217Z,17.03
2023-01-17T13:53:59.530Z,11.53
2023-01-17T13:56:36.982Z,12.60
2023-01-17T13:59:09.072Z,12.00
2023-01-17T14:01:57.193Z,14.90
2023-01-17T14:04:28.397Z,10.37
2023-01-17T14:07:04.017Z,8.83
2023-01-17T14:09:44.484Z,12.23
2023-01-17T14:12:30.172Z,13.80
2023-01-17T14:15:03.806Z,11.53
2023-01-17T14:17:56.035Z,9.80
2023-01-17T14:21:07.492Z,12.43
2023-01-17T14:23:55.354Z,12.80
2023-01-17T14:26:33.438Z,7.43
2023-01-17T14:29:38.453Z,10.47
2023-01-17T14:32:12.502Z,20.23
2023-01-17T14:34:42.919Z,10.73
2023-01-17T14:37:20.497Z,14.87
2023-01-17T14:39:54.005Z,11.17
2023-01-17T14:42:26.669Z,13.97
2023-01-17T14:45:03.364Z,10.63
2023-01-17T14:47:37.145Z,9.00
2023-01-17T14:50:25.236Z,9.23
2023-01-17T14:53:22.963Z,12.80
2023-01-17T14:56:00.902Z,9.63
2023-01-17T14:58:32.947Z,14.40
2023-01-17T15:01:05.484Z,11.27
2023-01-17T15:03:48.290Z,14.63
2023-01-17T15:06:21.887Z,10.60
2023-01-17T15:08:54.264Z,8.80
2023-01-17T15:11:30.553Z,8.53
2023-01-17T15:14:02.120Z,12.23
2023-01-17T15:16:34.163Z,9.13
2023-01-17T15:19:04.829Z,9.47
2023-01-17T15:21:42.510Z,11.33
2023-01-17T15:24:18.919Z,15.00
2023-01-17T15:26:52.002Z,13.90
2023-01-17T15:29:27.917Z,18.10
2023-01-17T15:32:00.535Z,14.17
2023-01-17T15:34:32.553Z,10.90
2023-01-17T15:37:05.362Z,12.03
2023-01-17T15:39:37.519Z,8.33
2023-01-17T15:42:23.101Z,8.27
2023-01-17T15:44:56.826Z,9.37
2023-01-17T15:47:31.130Z,8.70
2023-01-17T15:50:00.953Z,8.10
2023-01-17T15:52:31.386Z,11.27
2023-01-17T15:55:13.896Z,12.03
2023-01-17T15:57:49.549Z,10.27
2023-01-17T16:00:24.871Z,12.23
2023-01-17T16:02:59.062Z,13.47
2023-01-17T16:05:44.622Z,17.40
2023-01-17T16:08:30.806Z,7.23
2023-01-17T16:11:03.106Z,9.07
2023-01-17T16:13:37.916Z,6.40
2023-01-17T16:16:22.894Z,5.93
2023-01-17T16:19:00.480Z,11.33
2023-01-17T16:21:32.195Z,11.23
2023-01-17T16:24:03.315Z,10.57
2023-01-17T16:26:33.171Z,9.77
2023-01-17T16:29:07.663Z,11.03
2023-01-17T16:31:37.547Z,11.97
2023-01-17T16:34:14.759Z,8.67
2023-01-17T16:36:44.845Z,9.93
2023-01-17T16:39:17.156Z,12.50
2023-01-17T16:41:47.248Z,7.87
2023-01-17T16:44:19.690Z,11.30
2023-01-17T16:46:49.534Z,15.07
2023-01-17T16:49:19.558Z,7.13
2023-01-17T16:51:50.157Z,12.73
2023-01-17T16:54:19.893Z,6.80
2023-01-17T16:56:49.722Z,7.50
2023-01-17T16:59:22.217Z,11.97
2023-01-17T17:01:53.095Z,13.73
2023-01-17T17:04:23.420Z,11.47
2023-01-17T17:06:53.500Z,7.73
2023-01-17T17:09:23.420Z,9.13
2023-01-17T17:11:53.230Z,12.20
2023-01-17T17:14:25.699Z,12.87
2023-01-17T17:16:55.581Z,12.07
2023-01-17T17:19:26.017Z,14.53
2023-01-17T17:22:00.673Z,12.27
2023-01-17T17:24:31.437Z,14.37
2023-01-17T17:27:01.305Z,14.93
2023-01-17T17:29:34.080Z,18.67
2023-01-17T17:32:03.866Z,18.47
2023-01-17T17:34:37.056Z,13.20
2023-01-17T17:37:06.913Z,24.90
2023-01-17T17:39:36.876Z,13.63
2023-01-17T17:42:07.359Z,11.67
2023-01-17T17:44:39.801Z,12.43
2023-01-17T17:47:11.891Z,11.77
2023-01-17T17:49:41.916Z,10.43
2023-01-17T17:52:14.436Z,12.33
2023-01-17T17:54:44.457Z,14.87
2023-01-17T17:57:14.828Z,11.83
2023-01-17T17:59:47.266Z,10.60
2023-01-17T18:02:17.132Z,11.97
2023-01-17T18:04:47.398Z,11.10
2023-01-17T18:07:17.559Z,7.77
2023-01-17T18:09:47.523Z,11.57
2023-01-17T18:12:18.004Z,11.90
2023-01-17T18:14:50.489Z,13.60
2023-01-17T18:17:23.204Z,9.67
2023-01-17T18:19:52.974Z,11.70
2023-01-17T18:22:24.441Z,14.53
2023-01-17T18:24:56.761Z,11.80
2023-01-17T18:27:27.633Z,11.23
2023-01-17T18:30:00.408Z,14.33
2023-01-17T18:32:30.397Z,14.20
2023-01-17T18:35:00.105Z,13.57
2023-01-17T18:37:34.059Z,16.17
2023-01-17T18:40:04.474Z,10.40
2023-01-17T18:42:34.248Z,16.30
2023-01-17T18:45:07.248Z,15.70
2023-01-17T18:47:40.679Z,18.67
2023-01-17T18:50:13.443Z,14.87
2023-01-17T18:52:43.182Z,15.17
2023-01-17T18:55:12.962Z,16.10
2023-01-17T18:57:43.264Z,17.37
2023-01-17T19:00:20.666Z,19.97
2023-01-17T19:02:52.967Z,18.87
2023-01-17T19:05:24.860Z,21.37
2023-01-17T19:07:56.332Z,17.67
2023-01-17T19:10:28.839Z,15.47
2023-01-17T19:12:58.723Z,17.93
2023-01-17T19:15:33.273Z,17.90
2023-01-17T19:18:03.052Z,14.37
2023-01-17T19:20:37.022Z,17.07
2023-01-17T19:23:09.312Z,15.23
2023-01-17T19:25:44.196Z,18.17
2023-01-17T19:28:14.955Z,18.10
2023-01-17T19:30:48.368Z,17.60
2023-01-17T19:33:18.319Z,18.20
2023-01-17T19:35:57.494Z,22.87
2023-01-17T19:38:29.392Z,17.23
2023-01-17T19:41:09.138Z,20.27
2023-01-17T19:43:39.724Z,19.00
2023-01-17T19:46:14.835Z,18.77
2023-01-17T19:48:45.580Z,19.03
2023-01-17T19:51:20.172Z,24.47
2023-01-17T19:53:50.351Z,15.60
2023-01-17T19:56:21.915Z,20.80
2023-01-17T19:59:01.367Z,16.87
2023-01-17T20:01:35.779Z,18.50
2023-01-17T20:04:06.653Z,18.07
2023-01-17T20:06:39.216Z,19.83
2023-01-17T20:09:09.477Z,17.83
2023-01-17T20:11:43.244Z,19.37
2023-01-17T20:14:17.502Z,17.83
2023-01-17T20:16:49.994Z,20.37
2023-01-17T20:19:19.862Z,16.37
2023-01-17T20:21:52.308Z,24.07
2023-01-17T20:24:22.319Z,21.20
2023-01-17T20:26:54.200Z,19.20
2023-01-17T20:29:24.215Z,15.67
2023-01-17T20:31:56.839Z,19.53
2023-01-17T20:34:28.432Z,19.57
2023-01-17T20:36:59.467Z,19.63
2023-01-17T20:39:31.126Z,20.37
2023-01-17T20:42:01.388Z,17.50
2023-01-17T20:44:32.571Z,24.83
2023-01-17T20:47:05.045Z,16.90
2023-01-17T20:49:36.883Z,18.77
2023-01-17T20:52:06.963Z,21.73
2023-01-17T20:54:39.366Z,23.50
2023-01-17T20:57:09.258Z,24.23
2023-01-17T20:59:38.989Z,25.13
2023-01-17T21:02:12.807Z,22.00
2023-01-17T21:04:42.690Z,19.67
2023-01-17T21:07:15.060Z,28.90
2023-01-17T21:09:46.177Z,25.20
2023-01-17T21:12:18.175Z,22.87
2023-01-17T21:14:47.887Z,21.27
2023-01-17T21:17:20.270Z,23.40
2023-01-17T21:19:50.098Z,24.27
2023-01-17T21:22:19.788Z,24.30
2023-01-17T21:24:49.510Z,23.97
2023-01-17T21:27:19.294Z,20.93
2023-01-17T21:29:51.288Z,27.00
2023-01-17T21:32:28.508Z,19.73
2023-01-17T21:34:58.185Z,23.57
2023-01-17T21:37:27.916Z,23.93
2023-01-17T21:39:57.650Z,25.47
2023-01-17T21:42:27.382Z,22.17
2023-01-17T21:44:59.382Z,20.30
2023-01-17T21:47:32.252Z,27.97
2023-01-17T21:50:01.969Z,30.83
2023-01-17T21:52:31.736Z,21.13
2023-01-17T21:55:13.850Z,19.70
2023-01-17T21:57:58.880Z,20.67
2023-01-17T22:00:28.894Z,19.50
2023-01-17T22:03:01.363Z,18.30
2023-01-17T22:05:31.144Z,18.90
2023-01-17T22:08:15.994Z,19.30
2023-01-17T22:10:48.347Z,21.30
2023-01-17T22:13:19.800Z,22.20
2023-01-17T22:16:01.305Z,18.07
2023-01-17T22:18:43.436Z,19.67
2023-01-17T22:21:15.622Z,22.00
2023-01-17T22:23:52.482Z,24.90
2023-01-17T22:26:23.261Z,20.10
2023-01-17T22:28:53.286Z,23.53
2023-01-17T22:31:25.193Z,20.03
2023-01-17T22:34:01.312Z,19.43
2023-01-17T22:36:33.467Z,23.97
2023-01-17T22:39:12.483Z,19.97
2023-01-17T22:41:44.164Z,20.40
2023-01-17T22:44:14.816Z,21.87
2023-01-17T22:46:45.956Z,25.17
2023-01-17T22:49:23.467Z,24.03
2023-01-17T22:51:55.139Z,30.47
2023-01-17T22:54:25.095Z,18.03
2023-01-17T22:56:54.837Z,17.93
2023-01-17T22:59:24.672Z,23.80
2023-01-17T23:01:54.392Z,22.87
2023-01-17T23:04:28.392Z,22.97
2023-01-17T23:06:58.244Z,22.43
2023-01-17T23:09:28.013Z,21.83
2023-01-17T23:11:58.345Z,23.93
2023-01-17T23:14:30.879Z,27.70
2023-01-17T23:17:15.698Z,23.30
2023-01-17T23:19:51.058Z,21.60
2023-01-17T23:22:23.402Z,19.13
2023-01-17T23:24:55.341Z,23.20
2023-01-17T23:27:44.685Z,19.23
2023-01-17T23:30:18.768Z,20.37
2023-01-17T23:32:50.717Z,20.67
2023-01-17T23:35:24.811Z,15.60
2023-01-17T23:38:07.128Z,17.70
2023-01-17T23:40:40.446Z,18.33
2023-01-17T23:43:26.189Z,17.57
2023-01-17T23:45:57.829Z,18.67
2023-01-17T23:48:30.157Z,19.23
2023-01-17T23:51:04.338Z,16.60
2023-01-17T23:53:34.100Z,20.90
2023-01-17T23:56:08.887Z,15.07
2023-01-17T23:58:39.754Z,15.67
